Time;durP1;ratioP1;P1;durP2;ratioP2;P2;SDS_P1;SDS_P2;PMS_P1;PMS_P2;Temp;Humidity;BMP_temperature;BMP_pressure;BME280_temperature;BME280_humidity;BME280_pressure;Samples;Min_cycle;Max_cycle;Signal;HPM_P1;HPM_P2
2022/11/21 00:00:44;;;;;;;3.33;2.60;;;;;;;;;;5012515;28;20395;-77
2022/11/21 00:03:30;;;;;;;71.95;33.17;;;;;;;;;;5017460;28;20049;-76
2022/11/21 00:06:16;;;;;;;42.08;21.33;;;;;;;;;;5012834;28;20053;-76
2022/11/21 00:09:00;;;;;;;14.57;7.85;;;;;;;;;;5013160;28;20045;-77
2022/11/21 00:11:46;;;;;;;2.60;1.92;;;;;;;;;;5012303;28;20042;-75
2022/11/21 00:14:33;;;;;;;4.45;2.50;;;;;;;;;;5011809;28;20046;-76
2022/11/21 00:17:18;;;;;;;4.68;2.72;;;;;;;;;;5011698;28;20407;-78
2022/11/21 00:20:04;;;;;;;1.85;1.60;;;;;;;;;;4990718;28;20046;-76
2022/11/21 00:22:49;;;;;;;1.33;1.23;;;;;;;;;;5012949;28;20395;-76
2022/11/21 00:25:36;;;;;;;1.90;1.70;;;;;;;;;;5015620;28;20050;-75
2022/11/21 00:28:25;;;;;;;7.63;6.00;;;;;;;;;;5002630;28;20042;-75
2022/11/21 00:31:21;;;;;;;3.00;1.88;;;;;;;;;;5016024;28;20117;-74
2022/11/21 00:34:07;;;;;;;2.30;2.03;;;;;;;;;;5023237;28;20057;-76
2022/11/21 00:36:53;;;;;;;128.98;65.68;;;;;;;;;;5016526;28;20058;-75
2022/11/21 00:39:38;;;;;;;180.65;91.95;;;;;;;;;;5016551;28;20045;-74
2022/11/21 00:42:25;;;;;;;10.52;6.97;;;;;;;;;;5016618;28;20042;-76
2022/11/21 00:45:10;;;;;;;41.50;27.02;;;;;;;;;;5007504;28;20042;-77
2022/11/21 00:47:55;;;;;;;1.52;1.30;;;;;;;;;;5016027;28;20399;-74
2022/11/21 00:50:40;;;;;;;2.03;1.65;;;;;;;;;;5008103;28;20046;-77
2022/11/21 00:53:25;;;;;;;1.45;1.20;;;;;;;;;;5015549;28;20034;-77
2022/11/21 00:56:11;;;;;;;1.60;1.20;;;;;;;;;;5016771;28;20054;-75
2022/11/21 00:58:57;;;;;;;2.33;1.42;;;;;;;;;;5015858;28;20038;-76
2022/11/21 01:01:42;;;;;;;3.00;1.67;;;;;;;;;;5015986;28;20046;-76
2022/11/21 01:04:33;;;;;;;3.40;1.80;;;;;;;;;;5016069;28;20049;-76
2022/11/21 01:07:18;;;;;;;4.18;1.95;;;;;;;;;;5015234;28;20054;-77
2022/11/21 01:10:04;;;;;;;2.53;1.70;;;;;;;;;;5016123;28;20041;-76
2022/11/21 01:12:49;;;;;;;2.72;1.73;;;;;;;;;;5016438;28;20050;-78
2022/11/21 01:15:34;;;;;;;112.97;58.78;;;;;;;;;;5001026;28;20054;-77
2022/11/21 01:18:19;;;;;;;189.95;121.93;;;;;;;;;;5016153;28;20050;-78
2022/11/21 01:21:26;;;;;;;7.85;4.82;;;;;;;;;;5015373;28;20042;-77
2022/11/21 01:24:12;;;;;;;4.88;3.10;;;;;;;;;;5015774;28;20042;-75
2022/11/21 01:26:57;;;;;;;1.85;1.40;;;;;;;;;;5015136;28;20098;-75
2022/11/21 01:29:43;;;;;;;2.63;1.20;;;;;;;;;;5015515;28;20049;-77
2022/11/21 01:32:28;;;;;;;1.20;1.10;;;;;;;;;;4976774;28;20051;-77
2022/11/21 01:35:14;;;;;;;1.20;1.10;;;;;;;;;;4975271;28;20038;-75
2022/11/21 01:38:00;;;;;;;3.28;1.48;;;;;;;;;;4976936;28;20051;-75
2022/11/21 01:40:45;;;;;;;1.20;1.10;;;;;;;;;;4976521;28;20492;-77
2022/11/21 01:43:30;;;;;;;1.85;1.10;;;;;;;;;;4975833;28;20492;-74
2022/11/21 01:46:17;;;;;;;3.78;1.35;;;;;;;;;;4976404;28;20388;-74
2022/11/21 01:49:16;;;;;;;2.70;1.50;;;;;;;;;;4975637;28;20043;-75
2022/11/21 01:52:07;;;;;;;2.67;1.80;;;;;;;;;;4976406;28;20039;-74
2022/11/21 01:55:01;;;;;;;3.42;1.75;;;;;;;;;;4976532;28;20393;-74
2022/11/21 01:57:48;;;;;;;3.58;1.83;;;;;;;;;;4975928;28;20393;-77
2022/11/21 02:00:37;;;;;;;3.00;1.77;;;;;;;;;;4976304;28;20054;-74
2022/11/21 02:03:28;;;;;;;1.83;1.40;;;;;;;;;;4975442;28;20046;-76
2022/11/21 02:06:13;;;;;;;1.83;1.40;;;;;;;;;;4982360;28;20400;-76
2022/11/21 02:09:00;;;;;;;4.10;1.80;;;;;;;;;;4976188;28;20050;-77
2022/11/21 02:11:54;;;;;;;2.85;1.77;;;;;;;;;;4975130;28;20050;-74
2022/11/21 02:14:42;;;;;;;2.17;1.50;;;;;;;;;;4975744;28;20050;-76
2022/11/21 02:17:29;;;;;;;3.60;2.00;;;;;;;;;;4975290;28;20054;-74
2022/11/21 02:20:25;;;;;;;2.58;1.35;;;;;;;;;;4975940;28;20047;-75
2022/11/21 02:23:14;;;;;;;3.03;1.83;;;;;;;;;;4982579;28;20484;-76
2022/11/21 02:25:59;;;;;;;2.33;1.40;;;;;;;;;;4974810;28;20038;-75
2022/11/21 02:28:45;;;;;;;1.73;1.42;;;;;;;;;;4982090;28;20042;-76
2022/11/21 02:31:31;;;;;;;2.33;1.40;;;;;;;;;;4999610;28;20038;-77
2022/11/21 02:34:16;;;;;;;2.28;1.40;;;;;;;;;;5015044;28;20380;-77
2022/11/21 02:37:02;;;;;;;1.75;1.10;;;;;;;;;;5014435;28;20395;-75
2022/11/21 02:39:48;;;;;;;1.25;1.08;;;;;;;;;;5013998;28;20050;-75
2022/11/21 02:42:46;;;;;;;4.28;1.10;;;;;;;;;;5014645;28;20045;-74
2022/11/21 02:45:43;;;;;;;1.58;1.08;;;;;;;;;;5014613;28;20042;-75
2022/11/21 02:48:28;;;;;;;2.08;1.30;;;;;;;;;;5014106;28;20038;-75
2022/11/21 02:51:13;;;;;;;2.30;1.60;;;;;;;;;;5014466;28;20034;-74
2022/11/21 02:53:58;;;;;;;2.50;1.50;;;;;;;;;;5005386;28;20042;-77
2022/11/21 02:56:43;;;;;;;3.92;1.58;;;;;;;;;;5014297;28;20419;-75
2022/11/21 02:59:28;;;;;;;4.43;2.20;;;;;;;;;;5013879;28;20046;-75
2022/11/21 03:02:14;;;;;;;8.27;4.82;;;;;;;;;;5014301;28;20046;-75
2022/11/21 03:04:59;;;;;;;7.95;3.22;;;;;;;;;;5013884;28;20045;-74
2022/11/21 03:07:45;;;;;;;1.17;1.08;;;;;;;;;;5013419;28;20058;-75
2022/11/21 03:10:31;;;;;;;4.00;2.80;;;;;;;;;;5014059;28;20050;-77
2022/11/21 03:13:17;;;;;;;8.40;5.13;;;;;;;;;;5014182;28;20042;-76
2022/11/21 03:16:02;;;;;;;4.05;2.50;;;;;;;;;;5013798;28;20034;-77
2022/11/21 03:18:48;;;;;;;3.05;1.77;;;;;;;;;;5020700;28;20046;-74
2022/11/21 03:21:33;;;;;;;2.65;1.65;;;;;;;;;;5013355;28;20046;-76
2022/11/21 03:24:18;;;;;;;2.72;1.75;;;;;;;;;;5014122;28;20049;-76
2022/11/21 03:27:04;;;;;;;3.55;1.85;;;;;;;;;;5013855;28;20476;-75
2022/11/21 03:29:50;;;;;;;2.95;1.70;;;;;;;;;;5013341;28;20391;-76
2022/11/21 03:32:35;;;;;;;2.38;1.80;;;;;;;;;;5013827;28;20046;-74
2022/11/21 03:35:21;;;;;;;2.15;1.77;;;;;;;;;;5013209;28;20042;-75
2022/11/21 03:38:06;;;;;;;6.05;2.70;;;;;;;;;;5013570;28;20054;-75
2022/11/21 03:40:52;;;;;;;2.85;1.70;;;;;;;;;;5014070;28;20046;-74
2022/11/21 03:43:37;;;;;;;2.65;2.00;;;;;;;;;;5013380;28;20041;-75
2022/11/21 03:46:22;;;;;;;4.15;2.90;;;;;;;;;;5013692;28;20050;-75
2022/11/21 03:49:08;;;;;;;3.20;2.20;;;;;;;;;;5013222;28;20050;-76
2022/11/21 03:51:54;;;;;;;3.00;1.92;;;;;;;;;;5016073;28;20050;-75
2022/11/21 03:54:39;;;;;;;1.00;0.95;;;;;;;;;;5013681;28;20046;-74
2022/11/21 03:57:25;;;;;;;2.47;1.58;;;;;;;;;;5019589;28;20054;-74
2022/11/21 04:00:11;;;;;;;3.17;2.22;;;;;;;;;;5016358;28;20042;-77
2022/11/21 04:02:57;;;;;;;3.58;1.48;;;;;;;;;;5017119;28;20050;-76
2022/11/21 04:05:46;;;;;;;2.58;2.38;;;;;;;;;;5016577;28;20042;-75
2022/11/21 04:08:31;;;;;;;4.45;2.10;;;;;;;;;;5017046;28;20042;-76
2022/11/21 04:11:17;;;;;;;3.00;2.08;;;;;;;;;;5016917;28;20391;-74
2022/11/21 04:14:03;;;;;;;3.55;2.90;;;;;;;;;;5017603;28;20054;-76
2022/11/21 04:16:49;;;;;;;5.38;3.15;;;;;;;;;;5017234;28;20041;-76
2022/11/21 04:19:34;;;;;;;2.72;2.00;;;;;;;;;;5023098;28;20054;-75
2022/11/21 04:22:20;;;;;;;2.60;1.80;;;;;;;;;;5017236;28;20041;-75
2022/11/21 04:25:06;;;;;;;3.53;1.83;;;;;;;;;;5016352;28;20050;-75
2022/11/21 04:27:55;;;;;;;2.80;1.60;;;;;;;;;;5016364;28;20053;-76
2022/11/21 04:30:41;;;;;;;2.25;1.85;;;;;;;;;;5016670;28;20046;-76
2022/11/21 04:33:26;;;;;;;1.95;1.75;;;;;;;;;;5016155;28;20038;-74
2022/11/21 04:36:12;;;;;;;2.00;1.80;;;;;;;;;;5016918;28;20475;-74
2022/11/21 04:38:57;;;;;;;2.53;1.90;;;;;;;;;;5008174;28;20390;-77
2022/11/21 04:41:42;;;;;;;1.77;1.58;;;;;;;;;;5016403;28;20054;-75
2022/11/21 04:44:27;;;;;;;2.45;1.60;;;;;;;;;;5016615;28;20045;-75
2022/11/21 04:47:13;;;;;;;4.43;2.40;;;;;;;;;;5015640;28;20046;-77
2022/11/21 04:49:59;;;;;;;3.05;2.22;;;;;;;;;;5016439;28;20046;-77
2022/11/21 04:52:51;;;;;;;2.53;1.95;;;;;;;;;;5016110;28;20042;-76
2022/11/21 04:55:36;;;;;;;3.40;1.95;;;;;;;;;;5015785;28;20046;-76
2022/11/21 04:58:21;;;;;;;3.47;2.47;;;;;;;;;;5016076;28;20054;-75
2022/11/21 05:01:08;;;;;;;4.25;2.85;;;;;;;;;;5022068;28;20049;-76
2022/11/21 05:03:54;;;;;;;2.30;2.08;;;;;;;;;;5015997;28;20045;-75
2022/11/21 05:06:39;;;;;;;2.95;2.47;;;;;;;;;;5016295;28;20033;-75
2022/11/21 05:09:25;;;;;;;5.72;2.92;;;;;;;;;;5015475;28;20045;-75
2022/11/21 05:15:15;;;;;;;3.87;2.10;;;;;;;;;;5015370;28;20483;-75
2022/11/21 05:18:00;;;;;;;5.63;3.70;;;;;;;;;;5022554;28;20045;-75
2022/11/21 05:20:45;;;;;;;4.47;2.92;;;;;;;;;;5016045;28;20046;-76
2022/11/21 05:23:31;;;;;;;5.75;3.90;;;;;;;;;;5015020;28;20491;-77
2022/11/21 05:26:16;;;;;;;3.80;2.50;;;;;;;;;;5015481;28;20046;-77
2022/11/21 05:29:02;;;;;;;8.10;4.97;;;;;;;;;;5022086;28;20038;-77
2022/11/21 05:31:47;;;;;;;8.50;4.80;;;;;;;;;;5015168;28;20041;-75
2022/11/21 05:34:33;;;;;;;10.25;4.15;;;;;;;;;;5015406;28;20050;-76
2022/11/21 05:37:18;;;;;;;4.00;3.22;;;;;;;;;;5014996;28;20038;-75
2022/11/21 05:40:04;;;;;;;1.00;0.98;;;;;;;;;;5015315;28;20042;-77
2022/11/21 05:45:52;;;;;;;7.90;4.53;;;;;;;;;;5015277;28;20045;-76
2022/11/21 05:48:38;;;;;;;7.60;5.45;;;;;;;;;;5014940;28;20484;-75
2022/11/21 05:51:24;;;;;;;14.40;7.85;;;;;;;;;;5014526;28;20058;-76
2022/11/21 05:54:16;;;;;;;10.32;6.22;;;;;;;;;;5015234;28;20050;-74
2022/11/21 05:57:00;;;;;;;11.57;7.35;;;;;;;;;;5014998;28;20054;-79
2022/11/21 05:59:45;;;;;;;8.48;5.38;;;;;;;;;;5014507;28;20046;-77
2022/11/21 06:05:34;;;;;;;3.20;2.90;;;;;;;;;;5014257;28;20399;-74
2022/11/21 06:08:20;;;;;;;2.10;1.90;;;;;;;;;;5014620;28;20050;-74
2022/11/21 06:11:07;;;;;;;7.53;4.07;;;;;;;;;;5014577;28;20041;-76
2022/11/21 06:13:53;;;;;;;7.25;3.47;;;;;;;;;;5020731;28;20046;-77
2022/11/21 06:16:39;;;;;;;10.63;5.30;;;;;;;;;;5014705;28;20046;-77
2022/11/21 06:19:24;;;;;;;7.80;5.60;;;;;;;;;;5014604;28;20049;-76
2022/11/21 06:22:10;;;;;;;9.55;5.72;;;;;;;;;;5013982;28;20046;-75
2022/11/21 06:24:55;;;;;;;18.25;11.35;;;;;;;;;;5014465;28;20042;-74
2022/11/21 06:27:41;;;;;;;35.65;19.35;;;;;;;;;;5013689;28;20391;-78
2022/11/21 06:30:27;;;;;;;13.02;7.68;;;;;;;;;;5014190;28;20042;-77
2022/11/21 06:33:12;;;;;;;98.47;42.28;;;;;;;;;;5020779;28;20041;-76
2022/11/21 06:36:07;;;;;;;161.90;90.97;;;;;;;;;;5014216;28;20053;-77
2022/11/21 06:38:54;;;;;;;17.40;10.23;;;;;;;;;;5013962;28;20045;-77
2022/11/21 06:41:39;;;;;;;171.85;101.47;;;;;;;;;;5013393;28;20049;-75
2022/11/21 06:44:24;;;;;;;38.38;24.67;;;;;;;;;;5013781;28;20058;-78
2022/11/21 06:47:10;;;;;;;11.98;7.68;;;;;;;;;;5013627;28;20042;-76
2022/11/21 06:49:56;;;;;;;10.38;6.70;;;;;;;;;;5013802;28;20399;-74
2022/11/21 06:52:41;;;;;;;27.48;20.08;;;;;;;;;;5019839;28;20041;-77
2022/11/21 06:55:28;;;;;;;25.98;17.20;;;;;;;;;;5013264;28;20050;-74
2022/11/21 06:58:13;;;;;;;11.95;8.82;;;;;;;;;;5019778;28;20045;-76
2022/11/21 07:01:04;;;;;;;33.55;22.60;;;;;;;;;;5013797;28;20041;-74
2022/11/21 07:03:50;;;;;;;28.98;20.15;;;;;;;;;;5013092;28;20046;-75
2022/11/21 07:06:35;;;;;;;15.13;8.57;;;;;;;;;;5013363;28;20483;-76
2022/11/21 07:09:21;;;;;;;21.95;13.50;;;;;;;;;;5019304;28;20050;-77
2022/11/21 07:15:10;;;;;;;19.45;11.15;;;;;;;;;;5014013;28;20046;-74
2022/11/21 07:17:57;;;;;;;3.90;2.50;;;;;;;;;;5013488;28;20053;-77
2022/11/21 07:20:43;;;;;;;2.20;1.92;;;;;;;;;;5014024;28;20042;-77
2022/11/21 07:23:30;;;;;;;9.55;6.30;;;;;;;;;;5013363;28;20480;-75
2022/11/21 07:26:16;;;;;;;18.98;9.68;;;;;;;;;;5013928;28;20057;-75
2022/11/21 07:29:01;;;;;;;10.73;7.40;;;;;;;;;;5013603;28;20042;-76
2022/11/21 07:31:46;;;;;;;21.33;13.25;;;;;;;;;;5012788;28;20407;-74
2022/11/21 07:34:32;;;;;;;14.63;9.90;;;;;;;;;;5015397;28;20041;-77
2022/11/21 07:37:18;;;;;;;10.60;5.88;;;;;;;;;;5023734;28;20960;-77
2022/11/21 07:40:04;;;;;;;11.23;7.80;;;;;;;;;;5017534;28;20042;-76
2022/11/21 07:42:49;;;;;;;8.20;4.82;;;;;;;;;;5017716;28;20395;-75
2022/11/21 07:45:34;;;;;;;5.85;3.63;;;;;;;;;;5016891;28;20042;-75
2022/11/21 07:48:20;;;;;;;12.30;6.78;;;;;;;;;;5017657;28;20050;-77
2022/11/21 07:51:05;;;;;;;9.73;7.22;;;;;;;;;;5017740;28;20050;-76
2022/11/21 07:53:51;;;;;;;9.57;6.45;;;;;;;;;;5023865;28;20041;-75
2022/11/21 07:56:37;;;;;;;1.50;1.40;;;;;;;;;;5017264;28;20476;-77
2022/11/21 07:59:22;;;;;;;7.68;5.30;;;;;;;;;;5017104;28;20042;-75
2022/11/21 08:02:18;;;;;;;5.35;3.33;;;;;;;;;;5017153;28;20046;-77
2022/11/21 08:05:04;;;;;;;8.55;5.63;;;;;;;;;;5016951;28;20054;-77
2022/11/21 08:07:50;;;;;;;16.65;8.18;;;;;;;;;;5016018;28;20049;-77
2022/11/21 08:10:43;;;;;;;13.43;6.65;;;;;;;;;;5016449;28;20526;-76
2022/11/21 08:13:28;;;;;;;4.80;3.10;;;;;;;;;;5016142;28;20403;-77
2022/11/21 08:16:14;;;;;;;35.67;17.02;;;;;;;;;;5008647;28;20050;-78
2022/11/21 08:19:00;;;;;;;32.83;20.63;;;;;;;;;;5016768;28;20042;-74
2022/11/21 08:21:45;;;;;;;5.53;4.13;;;;;;;;;;5022702;28;20394;-75
2022/11/21 08:24:30;;;;;;;13.98;8.52;;;;;;;;;;5016790;28;20057;-75
2022/11/21 08:27:19;;;;;;;6.00;4.03;;;;;;;;;;5022383;28;20475;-77
2022/11/21 08:30:10;;;;;;;9.30;4.97;;;;;;;;;;5016493;28;20049;-75
2022/11/21 08:32:59;;;;;;;10.23;5.15;;;;;;;;;;5016384;28;20087;-78
2022/11/21 08:35:46;;;;;;;17.42;8.93;;;;;;;;;;5015880;28;20057;-78
2022/11/21 08:38:32;;;;;;;11.63;7.05;;;;;;;;;;5015366;28;20463;-77
2022/11/21 08:44:21;;;;;;;11.43;8.60;;;;;;;;;;5015833;28;20041;-77
2022/11/21 08:47:07;;;;;;;11.63;8.10;;;;;;;;;;5015426;28;20407;-76
2022/11/21 08:49:53;;;;;;;9.82;5.28;;;;;;;;;;5022036;28;20045;-76
2022/11/21 08:52:38;;;;;;;9.30;5.60;;;;;;;;;;5016016;28;20045;-76
2022/11/21 08:55:24;;;;;;;6.63;4.78;;;;;;;;;;5014627;28;20045;-77
2022/11/21 08:58:09;;;;;;;15.95;10.15;;;;;;;;;;5015976;28;20046;-75
2022/11/21 09:00:54;;;;;;;16.48;8.07;;;;;;;;;;5016168;28;20046;-76
2022/11/21 09:03:39;;;;;;;6.78;4.78;;;;;;;;;;5015763;28;20396;-77
2022/11/21 09:06:25;;;;;;;1.90;1.75;;;;;;;;;;5016037;28;20054;-80
2022/11/21 09:09:11;;;;;;;4.25;3.50;;;;;;;;;;5015542;28;20041;-78
2022/11/21 09:11:56;;;;;;;2.78;2.08;;;;;;;;;;5015135;28;20041;-79
2022/11/21 09:18:03;;;;;;;3.92;2.67;;;;;;;;;;5015205;28;20046;-79
2022/11/21 09:20:49;;;;;;;8.05;4.30;;;;;;;;;;5015567;28;20041;-83
2022/11/21 09:23:35;;;;;;;4.65;3.20;;;;;;;;;;5015787;28;20046;-83
2022/11/21 09:26:20;;;;;;;8.20;5.47;;;;;;;;;;5015487;28;20050;-82
2022/11/21 09:29:06;;;;;;;2.05;1.88;;;;;;;;;;5014851;28;20054;-79
2022/11/21 09:31:51;;;;;;;4.93;3.60;;;;;;;;;;5013955;28;20046;-79
2022/11/21 09:34:37;;;;;;;6.63;4.50;;;;;;;;;;5015344;28;20045;-79
2022/11/21 09:37:23;;;;;;;9.05;6.55;;;;;;;;;;5015669;28;20046;-83
2022/11/21 09:40:17;;;;;;;5.07;2.67;;;;;;;;;;5014650;28;20495;-80
2022/11/21 09:43:12;;;;;;;;;;;;;;;;;;5015802;28;20042;-80
2022/11/21 09:46:04;;;;;;;7.15;4.63;;;;;;;;;;5014856;28;19917;-81
2022/11/21 09:48:57;;;;;;;7.82;5.03;;;;;;;;;;5021044;28;20057;-81
2022/11/21 09:51:44;;;;;;;5.50;3.40;;;;;;;;;;5021445;28;20034;-81
2022/11/21 09:54:33;;;;;;;8.20;3.83;;;;;;;;;;5013978;28;20045;-80
2022/11/21 09:57:21;;;;;;;7.45;4.25;;;;;;;;;;5020868;28;20053;-79
2022/11/21 10:00:34;;;;;;;1.77;1.63;;;;;;;;;;5020570;28;20054;-81
2022/11/21 10:03:21;;;;;;;6.28;4.13;;;;;;;;;;5027218;28;20053;-78
2022/11/21 10:06:19;;;;;;;7.40;4.63;;;;;;;;;;5021421;28;20041;-78
2022/11/21 10:09:26;;;;;;;3.88;2.67;;;;;;;;;;5020998;28;20495;-80
2022/11/21 10:15:46;;;;;;;3.05;2.33;;;;;;;;;;5023578;28;20050;-83
2022/11/21 10:18:45;;;;;;;3.65;2.60;;;;;;;;;;5014255;28;20050;-82
2022/11/21 10:21:55;;;;;;;2.03;1.35;;;;;;;;;;5013847;28;20387;-79
2022/11/21 10:24:53;;;;;;;5.65;2.33;;;;;;;;;;5020577;28;20042;-80
2022/11/21 10:28:01;;;;;;;6.53;4.18;;;;;;;;;;5014342;28;20042;-83
2022/11/21 10:30:50;;;;;;;5.43;3.78;;;;;;;;;;5014685;28;20042;-79
2022/11/21 10:33:39;;;;;;;8.95;5.10;;;;;;;;;;5014692;28;20038;-78
2022/11/21 10:36:35;;;;;;;6.45;4.13;;;;;;;;;;5013752;28;20045;-80
2022/11/21 10:39:35;;;;;;;10.38;5.53;;;;;;;;;;5014550;28;20387;-83
2022/11/21 10:42:23;;;;;;;9.13;5.47;;;;;;;;;;5014006;28;20046;-85
2022/11/21 10:45:15;;;;;;;7.75;3.83;;;;;;;;;;5014146;28;20034;-84
2022/11/21 10:48:00;;;;;;;5.40;2.83;;;;;;;;;;5016995;28;20479;-80
2022/11/21 10:51:11;;;;;;;5.75;3.50;;;;;;;;;;5013476;28;20054;-79
2022/11/21 10:57:13;;;;;;;;;;;;;;;;;;5013902;28;20042;-78
2022/11/21 11:00:13;;;;;;;13.10;6.88;;;;;;;;;;5013953;28;19918;-78
2022/11/21 11:03:05;;;;;;;6.47;4.70;;;;;;;;;;5013222;28;20041;-78
2022/11/21 11:05:58;;;;;;;6.57;3.95;;;;;;;;;;4998581;28;20050;-80
2022/11/21 11:08:51;;;;;;;6.30;3.38;;;;;;;;;;5013565;28;20042;-80
2022/11/21 11:11:36;;;;;;;10.68;5.43;;;;;;;;;;4990656;28;20053;-79
2022/11/21 11:14:30;;;;;;;10.52;5.18;;;;;;;;;;4991884;28;20042;-78
2022/11/21 11:17:16;;;;;;;40.13;13.65;;;;;;;;;;4992508;28;20042;-78
2022/11/21 11:20:06;;;;;;;7.45;3.58;;;;;;;;;;5005349;28;20046;-78
2022/11/21 11:22:50;;;;;;;7.07;4.45;;;;;;;;;;5013900;28;20042;-78
2022/11/21 11:25:35;;;;;;;3.58;2.60;;;;;;;;;;4991264;28;20041;-79
2022/11/21 11:28:23;;;;;;;7.57;4.88;;;;;;;;;;4991765;28;20042;-80
2022/11/21 11:31:09;;;;;;;7.35;3.95;;;;;;;;;;5002675;28;20050;-79
2022/11/21 11:33:55;;;;;;;4.32;2.97;;;;;;;;;;5012895;28;20049;-79
2022/11/21 11:37:05;;;;;;;5.07;3.50;;;;;;;;;;4991720;28;20387;-79
2022/11/21 11:40:15;;;;;;;7.53;3.75;;;;;;;;;;5004911;28;20053;-79
2022/11/21 11:53:14;;;;;;;7.13;3.90;;;;;;;;;;5013774;28;20050;-77
2022/11/21 11:56:14;;;;;;;3.17;2.30;;;;;;;;;;5013174;28;20407;-76
2022/11/21 11:59:09;;;;;;;9.63;6.85;;;;;;;;;;5019923;28;20042;-78
2022/11/21 12:02:01;;;;;;;5.45;4.03;;;;;;;;;;5012068;28;20418;-78
2022/11/21 12:04:55;;;;;;;3.47;3.08;;;;;;;;;;5019987;28;20049;-78
2022/11/21 12:07:46;;;;;;;45.60;22.98;;;;;;;;;;5012573;28;20050;-78
2022/11/21 12:17:56;;;;;;;1.92;1.67;;;;;;;;;;5013012;28;20058;-78
2022/11/21 12:20:51;;;;;;;5.07;2.35;;;;;;;;;;5015151;28;20042;-77
2022/11/21 12:23:52;;;;;;;4.85;3.42;;;;;;;;;;5016335;28;20053;-79
2022/11/21 12:27:04;;;;;;;12.75;6.47;;;;;;;;;;5016625;28;20057;-79
2022/11/21 12:30:03;;;;;;;15.70;8.68;;;;;;;;;;5016190;28;20050;-79
2022/11/21 12:32:51;;;;;;;13.15;7.07;;;;;;;;;;5023888;28;20042;-80
2022/11/21 12:35:57;;;;;;;9.88;6.03;;;;;;;;;;5016781;28;20054;-76
2022/11/21 12:38:45;;;;;;;8.50;5.28;;;;;;;;;;5001754;28;20050;-77
2022/11/21 12:45:30;;;;;;;10.65;6.00;;;;;;;;;;4939700;28;20055;-80
2022/11/21 12:54:59;;;;;;;5.60;2.78;;;;;;;;;;5016302;28;20069;-77
2022/11/21 12:57:53;;;;;;;9.15;6.15;;;;;;;;;;5015547;28;20053;-79
2022/11/21 13:00:50;;;;;;;15.07;8.80;;;;;;;;;;5016515;28;20053;-78
2022/11/21 13:03:50;;;;;;;14.40;7.75;;;;;;;;;;5022276;28;20046;-80
2022/11/21 13:06:40;;;;;;;10.45;5.55;;;;;;;;;;5015155;28;20049;-78
2022/11/21 13:09:27;;;;;;;29.77;14.05;;;;;;;;;;5015868;28;20049;-80
2022/11/21 13:12:22;;;;;;;32.33;17.60;;;;;;;;;;5015259;28;20073;-77
2022/11/21 13:15:17;;;;;;;7.15;4.53;;;;;;;;;;5022068;28;20045;-77
2022/11/21 13:18:30;;;;;;;10.27;6.70;;;;;;;;;;5015885;28;20046;-77
2022/11/21 13:21:41;;;;;;;17.95;10.13;;;;;;;;;;5021804;28;20538;-78
2022/11/21 13:24:45;;;;;;;15.68;8.27;;;;;;;;;;5000914;28;20065;-80
2022/11/21 13:27:41;;;;;;;19.95;10.25;;;;;;;;;;5014523;28;20034;-78
2022/11/21 13:30:27;;;;;;;23.63;11.18;;;;;;;;;;5020469;28;20053;-77
2022/11/21 13:33:34;;;;;;;28.20;15.48;;;;;;;;;;5015424;28;20046;-78
2022/11/21 13:36:29;;;;;;;10.85;6.93;;;;;;;;;;5015640;28;20053;-78
2022/11/21 13:39:14;;;;;;;20.10;11.45;;;;;;;;;;5015192;28;20400;-77
2022/11/21 13:45:45;;;;;;;15.68;8.30;;;;;;;;;;5022108;28;20054;-78
2022/11/21 13:48:30;;;;;;;13.10;7.35;;;;;;;;;;4999731;28;20042;-79
2022/11/21 13:51:37;;;;;;;18.83;10.32;;;;;;;;;;5014903;28;20050;-79
2022/11/21 13:54:31;;;;;;;21.05;11.20;;;;;;;;;;5014507;28;20054;-80
2022/11/21 13:57:36;;;;;;;21.42;10.95;;;;;;;;;;5015256;28;20046;-79
2022/11/21 14:00:38;;;;;;;15.65;8.95;;;;;;;;;;5021335;28;20042;-78
2022/11/21 14:03:36;;;;;;;20.85;11.70;;;;;;;;;;5020754;28;20054;-79
2022/11/21 14:06:36;;;;;;;17.75;8.25;;;;;;;;;;5006726;28;20057;-79
2022/11/21 14:09:38;;;;;;;12.65;7.05;;;;;;;;;;5013921;28;20038;-81
2022/11/21 14:12:28;;;;;;;20.83;11.25;;;;;;;;;;4999625;28;20399;-78
2022/11/21 14:16:09;;;;;;;22.67;9.90;;;;;;;;;;5015045;28;20046;-80
2022/11/21 14:18:55;;;;;;;20.58;12.07;;;;;;;;;;4918722;28;20056;-79
2022/11/21 14:21:45;;;;;;;19.52;10.88;;;;;;;;;;5014595;28;20046;-78
2022/11/21 14:24:31;;;;;;;20.92;12.48;;;;;;;;;;5013953;28;20034;-78
2022/11/21 14:27:29;;;;;;;19.17;11.18;;;;;;;;;;5014113;28;20047;-78
2022/11/21 14:30:26;;;;;;;22.98;10.05;;;;;;;;;;5019133;28;20062;-80
2022/11/21 14:33:24;;;;;;;24.73;11.48;;;;;;;;;;5014785;28;20399;-79
2022/11/21 14:36:25;;;;;;;16.08;9.82;;;;;;;;;;5014749;28;20041;-78
2022/11/21 14:39:15;;;;;;;16.58;9.65;;;;;;;;;;5014070;28;20046;-78
2022/11/21 14:42:02;;;;;;;29.23;12.38;;;;;;;;;;5014973;28;20038;-78
2022/11/21 14:45:05;;;;;;;29.00;16.90;;;;;;;;;;5013763;28;20487;-79
2022/11/21 14:47:52;;;;;;;53.35;25.52;;;;;;;;;;5013710;28;20046;-80
2022/11/21 14:50:41;;;;;;;35.33;20.92;;;;;;;;;;5013944;28;20054;-80
2022/11/21 14:53:26;;;;;;;30.33;17.48;;;;;;;;;;5013622;28;20053;-80
2022/11/21 14:56:27;;;;;;;23.98;15.30;;;;;;;;;;5014098;28;20049;-79
2022/11/21 14:59:25;;;;;;;24.08;14.27;;;;;;;;;;5013061;28;20479;-79
2022/11/21 15:02:17;;;;;;;32.65;19.88;;;;;;;;;;5013849;28;20050;-80
2022/11/21 15:05:06;;;;;;;48.85;26.42;;;;;;;;;;5014134;28;20042;-79
2022/11/21 15:07:51;;;;;;;36.08;21.80;;;;;;;;;;5013478;28;20053;-81
2022/11/21 15:10:37;;;;;;;39.58;21.80;;;;;;;;;;5020523;28;20054;-80
2022/11/21 15:13:25;;;;;;;36.72;22.42;;;;;;;;;;5013707;28;20050;-82
2022/11/21 15:16:10;;;;;;;41.60;25.13;;;;;;;;;;5014124;28;20045;-82
2022/11/21 15:18:56;;;;;;;49.80;28.50;;;;;;;;;;5013808;28;20049;-80
2022/11/21 15:21:44;;;;;;;79.53;37.42;;;;;;;;;;5012707;28;20034;-81
2022/11/21 15:24:31;;;;;;;72.22;36.75;;;;;;;;;;5013558;28;20045;-82
2022/11/21 15:27:25;;;;;;;81.65;36.15;;;;;;;;;;4998321;28;20050;-81
2022/11/21 15:30:10;;;;;;;66.87;34.43;;;;;;;;;;5013964;28;20042;-80
2022/11/21 15:33:09;;;;;;;65.68;32.33;;;;;;;;;;5013517;28;20046;-80
2022/11/21 15:35:55;;;;;;;46.85;26.45;;;;;;;;;;5012972;28;20050;-82
2022/11/21 15:38:45;;;;;;;52.58;25.75;;;;;;;;;;5005343;28;20495;-81
2022/11/21 15:41:32;;;;;;;47.10;25.58;;;;;;;;;;5012961;28;20043;-82
2022/11/21 15:44:21;;;;;;;50.72;26.00;;;;;;;;;;5013461;28;20057;-82
2022/11/21 15:47:07;;;;;;;143.50;62.78;;;;;;;;;;5013162;28;20391;-83
2022/11/21 15:49:51;;;;;;;100.78;43.92;;;;;;;;;;5012953;28;20046;-81
2022/11/21 15:52:49;;;;;;;66.30;34.65;;;;;;;;;;5013654;28;20054;-82
2022/11/21 15:55:34;;;;;;;76.15;35.10;;;;;;;;;;5014465;28;20049;-84
2022/11/21 15:58:20;;;;;;;88.65;41.88;;;;;;;;;;5018269;28;20046;-82
2022/11/21 16:01:13;;;;;;;80.38;39.80;;;;;;;;;;5018465;28;20046;-81
2022/11/21 16:04:10;;;;;;;85.57;41.63;;;;;;;;;;5008540;28;20046;-81
2022/11/21 16:06:55;;;;;;;75.50;39.00;;;;;;;;;;5016945;28;20395;-84
2022/11/21 16:09:42;;;;;;;75.93;38.15;;;;;;;;;;5016330;28;20050;-82
2022/11/21 16:12:27;;;;;;;69.82;37.05;;;;;;;;;;5017076;28;20548;-83
2022/11/21 16:15:13;;;;;;;73.03;40.28;;;;;;;;;;5017084;28;20046;-82
2022/11/21 16:17:58;;;;;;;77.55;40.92;;;;;;;;;;5016150;28;20038;-83
2022/11/21 16:20:44;;;;;;;118.88;53.17;;;;;;;;;;5017089;28;20042;-82
2022/11/21 16:23:29;;;;;;;125.47;59.33;;;;;;;;;;5016404;28;20050;-82
2022/11/21 16:26:15;;;;;;;177.20;80.72;;;;;;;;;;5016787;28;20472;-80
2022/11/21 16:29:04;;;;;;;176.77;78.65;;;;;;;;;;5016312;28;20411;-81
2022/11/21 16:31:50;;;;;;;123.70;64.18;;;;;;;;;;5015937;28;20041;-82
2022/11/21 16:34:35;;;;;;;102.18;52.60;;;;;;;;;;5017128;28;20042;-80
2022/11/21 16:37:20;;;;;;;105.35;54.78;;;;;;;;;;5017132;28;20057;-82
2022/11/21 16:40:06;;;;;;;107.25;55.58;;;;;;;;;;5016030;28;20049;-81
2022/11/21 16:43:07;;;;;;;99.25;51.58;;;;;;;;;;5016586;28;20046;-81
2022/11/21 16:45:52;;;;;;;95.38;50.17;;;;;;;;;;5015604;28;20403;-83
2022/11/21 16:48:38;;;;;;;99.18;55.17;;;;;;;;;;5015344;28;20045;-80
2022/11/21 16:51:24;;;;;;;157.25;90.63;;;;;;;;;;5016254;28;20037;-83
2022/11/21 16:54:09;;;;;;;125.47;66.80;;;;;;;;;;5015343;28;20038;-81
2022/11/21 16:56:54;;;;;;;107.68;57.08;;;;;;;;;;5016242;28;20041;-83
2022/11/21 16:59:40;;;;;;;108.35;56.55;;;;;;;;;;5015335;28;20042;-81
2022/11/21 17:02:26;;;;;;;108.95;54.17;;;;;;;;;;5014345;28;20045;-79
2022/11/21 17:05:11;;;;;;;107.18;54.95;;;;;;;;;;5015713;28;20487;-77
2022/11/21 17:07:57;;;;;;;107.72;54.83;;;;;;;;;;5015273;28;20050;-83
2022/11/21 17:10:43;;;;;;;103.28;52.15;;;;;;;;;;5015782;28;20049;-84
2022/11/21 17:13:28;;;;;;;114.15;55.80;;;;;;;;;;5015587;28;20053;-84
2022/11/21 17:16:15;;;;;;;116.40;57.55;;;;;;;;;;5015741;28;20050;-82
2022/11/21 17:19:02;;;;;;;101.60;54.90;;;;;;;;;;5016046;28;20053;-83
2022/11/21 17:21:47;;;;;;;114.70;53.67;;;;;;;;;;5015230;28;20046;-83
2022/11/21 17:24:32;;;;;;;107.20;51.72;;;;;;;;;;5015603;28;20050;-82
2022/11/21 17:27:22;;;;;;;111.30;50.63;;;;;;;;;;5015865;28;20071;-84
2022/11/21 17:30:08;;;;;;;105.63;50.28;;;;;;;;;;5014885;28;20054;-82
2022/11/21 17:32:53;;;;;;;117.75;58.13;;;;;;;;;;5022204;28;20041;-83
2022/11/21 17:35:39;;;;;;;147.02;67.85;;;;;;;;;;5014973;28;20483;-83
2022/11/21 17:38:26;;;;;;;126.18;59.15;;;;;;;;;;5015187;28;20045;-84